Flight Track Log - Related Links

Times and Time Zones

All times are in EDT time to prevent confusion due to time zone crossing. See the ASQ5685 flight status page for this flight to view local times or setup timezone preferences in your user account.

Time Position Orientation Groundspeed Altitude Reporting Facility
EDT Latitude Longitude Course Direction KTS MPH feet Rate Location/Type
Sat 02:38:40 PM 44.5042 -73.2725 195° South 207 238 4,300  Level Boston Center
Sat 02:39:40 PM 44.4847 -73.3594 253° West 234 269 6,800 2,500 Climbing Boston Center
Sat 02:40:00 PM 44.0875 -73.2917 196° South  Level FlightAware Approximate
Sat 02:40:40 PM 44.4136 -73.3875 196° South 241 277 9,300  Level Boston Center
Sat 02:41:00 PM 43.9930 -73.3295 196° South  Level FlightAware Approximate
Sat 02:41:40 PM 44.3322 -73.4064 189° South 273 314 10,700  Level Boston Center
Sat 02:42:00 PM 43.8984 -73.3672 195° South  Level FlightAware Approximate
Sat 02:42:40 PM 44.2383 -73.4311 191° South 331 381 12,400  Level Boston Center
Sat 02:43:00 PM 43.8034 -73.4024 195° South  Level FlightAware Approximate
Sat 02:43:40 PM 44.1381 -73.4583 191° South 361 415 14,100  Level Boston Center
Sat 02:44:00 PM 43.7083 -73.4374 195° South  Level FlightAware Approximate
Sat 02:44:40 PM 44.0272 -73.4881 191° South 370 426 16,000  Level Boston Center
Sat 02:45:40 PM 43.9228 -73.5153 191° South 375 432 17,600 1,150 Climbing Boston Center
Sat 02:46:40 PM 43.8183 -73.5422 191° South 382 440 18,300 591 Climbing Boston Center
Sat 02:47:52 PM 43.7097 -73.5689 190° South 394 453 18,900 591 Climbing Boston Center
Sat 02:48:52 PM 43.5803 -73.5981 189° South 413 475 19,600 650 Climbing Boston Center
Sat 02:49:52 PM 43.4633 -73.6244 189° South 424 488 20,200 545 Climbing Boston Center
Sat 02:51:04 PM 43.3422 -73.6561 191° South 435 501 20,800 591 Climbing Boston Center
Sat 02:52:04 PM 43.2000 -73.6933 191° South 440 506 21,500 650 Climbing Boston Center
Sat 02:53:04 PM 43.0872 -73.7222 191° South 446 513 22,100 700 Climbing Boston Center
Sat 02:54:04 PM 42.9533 -73.7536 190° South 451 519 22,900 750 Climbing Boston Center
Sat 02:55:04 PM 42.8281 -73.7847 190° South 451 519 23,600 700 Climbing Boston Center
Sat 02:56:04 PM 42.7047 -73.8217 192° South 451 519 24,300 750 Climbing Boston Center
Sat 02:57:04 PM 42.5747 -73.8864 200° South 451 519 25,100 750 Climbing Boston Center
Sat 02:58:04 PM 42.4550 -73.9400 198° South 451 519 25,800 700 Climbing Boston Center
Sat 02:59:04 PM 42.3356 -73.9933 198° South 451 519 26,500 700 Climbing Boston Center
Sat 03:00:04 PM 42.2142 -74.0378 195° South 451 519 27,200 1,500 Climbing Boston Center
Sat 03:01:04 PM 42.0911 -74.0461 183° South 451 519 29,500 1,400 Climbing Boston Center
Sat 03:02:04 PM 41.9764 -74.0514 182° South 434 499 30,000 250 Climbing Boston Center
Sat 03:03:04 PM 41.8833 -73.9933 155° Southeast 404 465 30,000 -50 Level Boston Center
Sat 03:04:04 PM 41.7869 -73.8711 137° Southeast 416 479 29,900  Descending Boston Center
Sat 03:05:04 PM 41.6964 -73.7692 140° Southeast 422 486 30,000 50 Climbing Boston Center
Sat 03:06:04 PM 41.6100 -73.6839 144° Southeast 429 494 30,000 -50 Level Boston Center
Sat 03:07:04 PM 41.4869 -73.6953 184° South 392 451 29,900  Descending Boston Center
Sat 03:08:18 PM 41.4403 -73.8403 247° West 285 328 30,000 45 Climbing New York Center
Sat 03:09:16 PM 41.4222 -73.9722 260° West 307 353 30,000  Level New York Center
Sat 03:10:17 PM 41.3525 -74.0822 230° Southwest 366 421 30,000  Level New York Center
Sat 03:11:17 PM 41.2686 -74.1800 221° Southwest 388 447 30,000 -99 Level New York Center
Sat 03:12:18 PM 41.1761 -74.2775 218° Southwest 408 470 29,800 -403 Descending New York Center
Sat 03:13:16 PM 41.0814 -74.3825 220° Southwest 422 486 29,200 -610 Descending New York Center
Sat 03:14:16 PM 40.9839 -74.5011 223° Southwest 452 520 28,600 -595 Descending New York Center
Sat 03:15:17 PM 40.8947 -74.6169 224° Southwest 458 527 28,000 -344 Descending New York Center
Sat 03:16:18 PM 40.8483 -74.7653 248° West 447 514 27,900  Descending New York Center
Sat 03:17:16 PM 40.8150 -74.8839 250° West 414 476 28,000 51 Climbing New York Center
Sat 03:18:16 PM 40.7775 -74.9994 247° West 377 434 28,000  Level New York Center
Sat 03:19:17 PM 40.7236 -75.1111 238° Southwest 360 414 28,000 -347 Level New York Center
Sat 03:20:17 PM 40.6672 -75.2225 236° Southwest 360 414 27,300 -893 Descending New York Center
Sat 03:21:18 PM 40.6153 -75.3283 237° Southwest 360 414 26,200 -1,109 Descending New York Center
Sat 03:22:16 PM 40.5586 -75.4422 237° Southwest 360 414 25,100 -1,059 Descending New York Center
Sat 03:23:17 PM 40.5047 -75.5450 235° Southwest 360 414 24,100 -984 Descending New York Center
Sat 03:24:18 PM 40.4522 -75.6531 237° Southwest 355 409 23,100 -1,388 Descending New York Center
Sat 03:25:18 PM 40.3978 -75.7611 237° Southwest 355 409 21,300 -1,576 Descending New York Center
Sat 03:26:16 PM 40.3386 -75.8739 235° Southwest 360 414 20,000 -661 Descending New York Center
Sat 03:27:16 PM 40.2842 -75.9786 236° Southwest 365 420 20,000 -1,230 Level New York Center
Sat 03:28:18 PM 40.2250 -76.0911 235° Southwest 351 404 17,500 -1,488 Descending New York Center
Sat 03:29:17 PM 40.1769 -76.1825 235° Southwest 321 369 17,000 -1,059 Descending New York Center
Sat 03:30:17 PM 40.1356 -76.2664 237° Southwest 308 354 15,400 -992 Descending New York Center
Sat 03:31:18 PM 40.0897 -76.3575 237° Southwest 308 354 15,000 -123 Descending New York Center
Sat 03:33:32 PM 39.9833 -76.5833 238° Southwest 312 359 15,000  Level Potomac TRACON
Sat 03:34:38 PM 39.9333 -76.7000 241° Southwest 308 354 15,000  Level Potomac TRACON
Sat 03:35:33 PM 39.9000 -76.7667 237° Southwest 306 352 15,000  Level Potomac TRACON
Sat 03:36:39 PM 39.8500 -76.8833 241° Southwest 302 348 15,000 -429 Level Potomac TRACON
Sat 03:37:39 PM 39.8000 -76.9667 232° Southwest 292 336 14,100 -942 Descending Potomac TRACON
Sat 03:38:40 PM 39.7667 -77.0500 243° Southwest 291 335 13,100 -992 Descending Potomac TRACON
Sat 03:39:40 PM 39.7167 -77.1500 237° Southwest 297 342 12,100 -1,000 Descending Potomac TRACON
Sat 03:40:40 PM 39.6667 -77.2500 237° Southwest 292 336 11,100 -1,000 Descending Potomac TRACON
Sat 03:41:34 PM 39.6333 -77.3167 237° Southwest 297 342 10,200 -992 Descending Potomac TRACON
Sat 03:42:47 PM 39.5500 -77.3833 212° Southwest 285 328 9,000 -992 Descending Potomac TRACON
Sat 03:43:41 PM 39.4833 -77.4167 201° Southwest 285 328 8,100 -1,000 Descending Potomac TRACON
Sat 03:44:41 PM 39.4000 -77.4333 189° South 273 314 7,100 -1,579 Descending Potomac TRACON
Sat 03:45:35 PM 39.3500 -77.4333 180° South 262 302 5,100 -1,983 Descending Potomac TRACON
Sat 03:46:42 PM 39.2667 -77.4333 180° South 253 291 3,100 -945 Descending Potomac TRACON
Sat 03:47:42 PM 39.2000 -77.4333 180° South 258 297 3,100 -53 Level Potomac TRACON
Sat 03:48:36 PM 39.1333 -77.4333 180° South 242 278 3,000 -52 Descending Potomac TRACON
Sat 03:49:37 PM 39.0667 -77.4333 180° South 189 217 3,000  Level Potomac TRACON

Login

Don't have an account? Register now (free) for customized features, flight alerts, and more!